Tabriz, Iran
Current Conditions -  °F | °C
As of 2:00 PM on Friday 24 Oct 2014 (Local Time) from OITT Reporting Station
Few Clouds Few Clouds  
Wind Chill: 63°   Ceiling: Unl
Heat Index: 63°   Visibility: 6mi
Dew Point: 43°   Wind: 9mph
Humidity: 48%   Direction: 260°W
Pressure: 30.15"   Gusts: NA
Location:  38.08°N, 46.3°E
Report Text: OITT 241000Z 26008KT 9999 FEW035 17/06 Q1021 A3015
Loading
Personal Weather Stations






























Interactive Weather Map
Tropical Storm Tracking
New forecast layout! Learn more

10-Day Weather Forecast

Advertisements
Track Severe Weather on mobile